createdAt,value
2019-06-08T00:02:28.735Z,100258.80
2019-06-08T00:07:30.948Z,100272.41
2019-06-08T00:12:32.824Z,100292.58
2019-06-08T00:17:38.794Z,100315.89
2019-06-08T00:22:39.012Z,100323.23
2019-06-08T00:27:42.074Z,100350.81
2019-06-08T00:32:44.965Z,100337.64
2019-06-08T00:37:47.044Z,100348.38
2019-06-08T00:42:49.020Z,100363.10
2019-06-08T00:47:50.933Z,100367.11
2019-06-08T00:52:52.802Z,100372.45
2019-06-08T00:57:55.161Z,100359.69
2019-06-08T01:02:57.346Z,100364.84
2019-06-08T01:07:59.287Z,100354.08
2019-06-08T01:13:01.551Z,100365.67
2019-06-08T01:18:04.440Z,100390.25
2019-06-08T01:23:06.651Z,100412.02
2019-06-08T01:28:09.021Z,100418.91
2019-06-08T01:33:10.892Z,100450.79
2019-06-08T01:38:12.932Z,100438.00
2019-06-08T01:43:14.794Z,100488.98
2019-06-08T01:48:20.301Z,100517.91
2019-06-08T01:53:20.989Z,100495.27
2019-06-08T01:58:23.374Z,100484.53
2019-06-08T02:03:26.230Z,100481.24
2019-06-08T02:08:28.706Z,100462.78
2019-06-08T02:13:31.009Z,100456.53
2019-06-08T02:18:45.738Z,100477.58
2019-06-08T02:23:37.323Z,100467.22
2019-06-08T02:28:40.123Z,100460.16
2019-06-08T02:33:42.505Z,100460.97
2019-06-08T02:38:44.452Z,100447.72
2019-06-08T02:43:46.517Z,100441.76
2019-06-08T02:49:03.589Z,100433.95
2019-06-08T02:53:52.559Z,100433.02
2019-06-08T02:58:57.411Z,100444.40
2019-06-08T03:04:00.732Z,100440.73
2019-06-08T03:09:04.988Z,100452.61
2019-06-08T03:14:08.040Z,100456.95
2019-06-08T03:19:21.737Z,100484.99
2019-06-08T03:24:13.899Z,100504.09
2019-06-08T03:29:16.031Z,100499.33
2019-06-08T03:34:18.054Z,100487.92
2019-06-08T03:39:21.098Z,100488.11
2019-06-08T03:44:22.935Z,100498.66
2019-06-08T03:49:41.546Z,100511.56
2019-06-08T03:54:32.393Z,100524.97
2019-06-08T03:59:35.964Z,100522.09
2019-06-08T04:04:39.842Z,100515.93
2019-06-08T04:09:43.484Z,100540.59
2019-06-08T04:14:47.401Z,100552.45
2019-06-08T04:20:06.349Z,100563.69
2019-06-08T04:24:53.291Z,100586.26
2019-06-08T04:29:55.284Z,100570.59
2019-06-08T04:34:57.152Z,100570.23
2019-06-08T04:39:59.177Z,100564.52
2019-06-08T04:45:01.279Z,100570.34
2019-06-08T04:50:20.824Z,100591.12
2019-06-08T04:55:08.200Z,100574.55
2019-06-08T05:00:12.510Z,100588.51
2019-06-08T05:05:14.677Z,100603.67
2019-06-08T05:10:16.835Z,100617.49
2019-06-08T05:15:18.841Z,100616.35
2019-06-08T05:20:34.977Z,100623.52
2019-06-08T05:25:25.561Z,100618.08
2019-06-08T05:30:28.230Z,100572.95
2019-06-08T05:35:30.321Z,100576.16
2019-06-08T05:40:32.446Z,100588.50
2019-06-08T05:45:34.575Z,100608.05
2019-06-08T05:50:36.744Z,100620.64
2019-06-08T05:55:39.745Z,100637.84
2019-06-08T06:00:42.191Z,100632.83
2019-06-08T06:05:44.368Z,100636.61
2019-06-08T06:10:46.907Z,100638.27
2019-06-08T06:15:49.258Z,100642.34
2019-06-08T06:20:51.450Z,100660.50
2019-06-08T06:25:54.707Z,100686.78
2019-06-08T06:30:56.851Z,100706.00
2019-06-08T06:35:58.892Z,100709.23
2019-06-08T06:41:03.795Z,100708.67
2019-06-08T06:46:05.876Z,100729.15
2019-06-08T06:51:07.944Z,100726.73
2019-06-08T06:56:09.819Z,100737.61
2019-06-08T07:01:12.207Z,100727.41
2019-06-08T07:06:14.291Z,100739.82
2019-06-08T07:11:16.338Z,100755.93
2019-06-08T07:16:19.037Z,100747.72
2019-06-08T07:21:21.502Z,100743.83
2019-06-08T07:26:23.539Z,100739.84
2019-06-08T07:31:25.527Z,100746.30
2019-06-08T07:36:27.621Z,100729.73
2019-06-08T07:41:30.781Z,100749.94
2019-06-08T07:46:33.894Z,100745.47
2019-06-08T07:51:35.785Z,100750.09
2019-06-08T07:56:37.805Z,100756.44
2019-06-08T08:01:39.879Z,100750.32
2019-06-08T08:06:41.971Z,100743.52
2019-06-08T08:11:44.195Z,100758.30
2019-06-08T08:16:46.575Z,100764.66
2019-06-08T08:21:51.890Z,100759.77
2019-06-08T08:26:53.246Z,100749.09
2019-06-08T08:32:00.140Z,100779.56
2019-06-08T08:37:05.956Z,100785.71
2019-06-08T08:42:08.327Z,100782.97
2019-06-08T08:47:09.800Z,100792.75
2019-06-08T08:52:11.924Z,100808.79
2019-06-08T08:57:13.951Z,100806.45
2019-06-08T09:02:21.023Z,100818.38
2019-06-08T09:07:19.962Z,100823.45
2019-06-08T09:12:21.935Z,100830.23
2019-06-08T09:17:23.925Z,100839.97
2019-06-08T09:22:52.929Z,100845.65
2019-06-08T09:27:42.852Z,100831.84
2019-06-08T09:32:44.945Z,100833.86
2019-06-08T09:37:48.567Z,100845.45
2019-06-08T09:42:51.496Z,100849.53
2019-06-08T09:47:55.399Z,100862.87
2019-06-08T09:53:14.845Z,100864.98
2019-06-08T09:58:05.040Z,100857.03
2019-06-08T10:03:07.160Z,100847.92
2019-06-08T10:08:09.835Z,100845.75
2019-06-08T10:13:12.068Z,100825.70
2019-06-08T10:18:13.953Z,100845.77
2019-06-08T10:23:30.302Z,100838.47
2019-06-08T10:28:21.786Z,100839.78
2019-06-08T10:33:24.118Z,100835.47
2019-06-08T10:38:28.789Z,100840.59
2019-06-08T10:43:30.285Z,100849.31
2019-06-08T10:48:32.458Z,100826.63
2019-06-08T10:53:48.277Z,100843.55
2019-06-08T10:58:38.383Z,100839.75
2019-06-08T11:03:40.508Z,100789.73
2019-06-08T11:08:42.641Z,100857.20
2019-06-08T11:13:44.900Z,100856.42
2019-06-08T11:18:50.576Z,100859.42
2019-06-08T11:24:05.556Z,100867.77
2019-06-08T11:28:54.956Z,100856.24
2019-06-08T11:33:58.927Z,100870.63
2019-06-08T11:39:02.495Z,100866.48
2019-06-08T11:44:08.181Z,100877.23
2019-06-08T11:49:13.436Z,100866.84
2019-06-08T11:54:29.496Z,100846.54
2019-06-08T11:59:18.687Z,100861.70
2019-06-08T12:04:20.691Z,100861.52
2019-06-08T12:09:23.669Z,100894.32
2019-06-08T12:14:25.970Z,100873.02
2019-06-08T12:19:28.325Z,100887.75
2019-06-08T12:24:41.425Z,100913.31
2019-06-08T12:29:35.613Z,100890.20
2019-06-08T12:34:38.398Z,100920.35
2019-06-08T12:39:40.372Z,100925.11
2019-06-08T12:44:43.801Z,100934.56
2019-06-08T12:49:48.262Z,100935.88
2019-06-08T12:55:02.470Z,100925.91
2019-06-08T12:59:53.830Z,100928.20
2019-06-08T13:04:55.984Z,100920.78
2019-06-08T13:09:58.522Z,100932.84
2019-06-08T13:15:00.499Z,100943.15
2019-06-08T13:20:03.106Z,100938.58
2019-06-08T13:25:21.135Z,100952.81
2019-06-08T13:30:11.902Z,100956.94
2019-06-08T13:35:18.844Z,100935.55
2019-06-08T13:40:21.915Z,100959.48
2019-06-08T13:49:09.120Z,100954.80
2019-06-08T13:54:11.125Z,100957.54
2019-06-08T13:59:14.267Z,100963.53
2019-06-08T14:04:18.968Z,100955.33
2019-06-08T14:09:22.087Z,100955.40
2019-06-08T14:14:25.877Z,100960.86
2019-06-08T14:19:31.382Z,100953.70
2019-06-08T14:24:37.766Z,100968.91
2019-06-08T14:29:40.089Z,100961.42
2019-06-08T14:34:42.306Z,100961.23
2019-06-08T14:39:44.405Z,100947.34
2019-06-08T14:44:47.602Z,100964.47
2019-06-08T14:49:49.691Z,100965.05
2019-06-08T14:54:51.901Z,100947.42
2019-06-08T14:59:56.323Z,100955.55
2019-06-08T15:04:57.630Z,100961.48
2019-06-08T15:09:59.813Z,100945.93
2019-06-08T15:15:01.966Z,100962.55
2019-06-08T15:20:04.527Z,100948.11
2019-06-08T15:25:08.224Z,100955.64
2019-06-08T15:30:11.685Z,100959.28
2019-06-08T15:35:13.782Z,100961.32
2019-06-08T15:40:17.751Z,100973.58
2019-06-08T15:45:19.839Z,100971.15
2019-06-08T15:50:22.250Z,100962.94
2019-06-08T15:55:24.725Z,100963.92
2019-06-08T16:00:31.038Z,100956.84
2019-06-08T16:05:32.213Z,100971.91
2019-06-08T16:10:34.366Z,100980.16
2019-06-08T16:15:36.386Z,100981.62
2019-06-08T16:20:38.333Z,100973.34
2019-06-08T16:25:40.398Z,100973.80
2019-06-08T16:30:42.995Z,100967.25
2019-06-08T16:35:45.063Z,100968.55
2019-06-08T16:40:47.440Z,100966.41
2019-06-08T16:45:49.287Z,100972.13
2019-06-08T16:50:52.363Z,100984.75
2019-06-08T16:55:54.511Z,100972.56
2019-06-08T17:00:56.696Z,100982.16
2019-06-08T17:05:58.993Z,100985.83
2019-06-08T17:11:01.129Z,100987.48
2019-06-08T17:16:03.286Z,100982.55
2019-06-08T17:21:05.376Z,100988.33
2019-06-08T17:26:07.676Z,100991.59
2019-06-08T17:31:09.754Z,100989.53
2019-06-08T17:36:12.775Z,101001.53
2019-06-08T17:41:15.086Z,101000.44
2019-06-08T17:46:17.074Z,100993.81
2019-06-08T17:51:18.981Z,100997.34
2019-06-08T17:56:20.828Z,100999.22
2019-06-08T18:01:22.849Z,101001.33
2019-06-08T18:06:24.777Z,101009.73
2019-06-08T18:11:27.954Z,100998.16
2019-06-08T18:16:30.162Z,101021.98
2019-06-08T18:21:32.409Z,101020.66
2019-06-08T18:26:34.394Z,101035.20
2019-06-08T18:31:39.658Z,101040.98
2019-06-08T18:36:41.856Z,101041.95
2019-06-08T18:41:45.415Z,101051.64
2019-06-08T18:46:48.262Z,101058.47
2019-06-08T18:51:51.995Z,101063.53
2019-06-08T18:56:53.852Z,101065.08
2019-06-08T19:01:56.193Z,101077.80
2019-06-08T19:07:01.391Z,101081.15
2019-06-08T19:12:04.689Z,101085.50
2019-06-08T19:17:07.568Z,101095.59
2019-06-08T19:22:09.735Z,101108.00
2019-06-08T19:27:11.728Z,101103.89
2019-06-08T19:32:13.711Z,101107.69
2019-06-08T19:37:17.309Z,101114.39
2019-06-08T19:42:35.281Z,101119.93
2019-06-08T19:47:24.437Z,101126.97
2019-06-08T19:52:26.357Z,101136.51
2019-06-08T19:57:28.459Z,101137.44
2019-06-08T20:02:30.782Z,101148.84
2019-06-08T20:07:32.697Z,101153.68
2019-06-08T20:12:37.200Z,101155.45
2019-06-08T20:17:39.069Z,101155.44
2019-06-08T20:22:41.780Z,101161.71
2019-06-08T20:27:43.761Z,101162.84
2019-06-08T20:32:49.517Z,101165.23
2019-06-08T20:37:50.736Z,101166.33
2019-06-08T20:42:54.928Z,101178.81
2019-06-08T20:47:58.516Z,101173.95
2019-06-08T20:53:00.774Z,101176.98
2019-06-08T20:58:02.785Z,101169.67
2019-06-08T21:03:04.780Z,101184.30
2019-06-08T21:08:08.361Z,101182.81
2019-06-08T21:13:10.888Z,101178.69
2019-06-08T21:18:12.853Z,101182.55
2019-06-08T21:23:16.948Z,101187.86
2019-06-08T21:28:18.667Z,101187.16
2019-06-08T21:33:22.172Z,101185.41
2019-06-08T21:38:24.709Z,101188.22
2019-06-08T21:43:28.001Z,101184.48
2019-06-08T21:48:31.054Z,101193.50
2019-06-08T21:53:34.950Z,101199.14
2019-06-08T21:58:38.928Z,101193.99
2019-06-08T22:03:41.282Z,101196.94
2019-06-08T22:08:43.613Z,101198.89
2019-06-08T22:13:47.697Z,101204.31
2019-06-08T22:18:53.051Z,101201.00
2019-06-08T22:23:57.774Z,101203.59
2019-06-08T22:29:01.194Z,101202.89
2019-06-08T22:34:04.024Z,101193.52
2019-06-08T22:39:08.064Z,101203.16
2019-06-08T22:44:12.569Z,101204.62
2019-06-08T22:49:18.570Z,101192.92
2019-06-08T22:54:20.811Z,101193.75
2019-06-08T22:59:22.727Z,101181.23
2019-06-08T23:04:24.778Z,101187.39
2019-06-08T23:09:28.363Z,101190.28
2019-06-08T23:14:30.905Z,101197.97
2019-06-08T23:19:33.102Z,101203.59
2019-06-08T23:24:35.141Z,101204.75
2019-06-08T23:29:38.152Z,101197.28
2019-06-08T23:34:40.725Z,101204.91
2019-06-08T23:39:42.960Z,101200.89
2019-06-08T23:44:47.151Z,101199.60
2019-06-08T23:49:49.305Z,101204.61
2019-06-08T23:54:51.611Z,101198.92
2019-06-08T23:59:53.633Z,101207.36
